createdAt,value
2023-01-19T00:09:53.654Z,959.89
2023-01-19T00:19:53.893Z,959.94
2023-01-19T00:29:54.081Z,959.97
2023-01-19T00:39:54.333Z,960.01
2023-01-19T00:49:54.493Z,960.16
2023-01-19T00:59:54.716Z,960.17
2023-01-19T01:09:54.915Z,960.20
2023-01-19T01:19:55.139Z,960.23
2023-01-19T01:29:55.313Z,960.23
2023-01-19T01:39:55.554Z,960.31
2023-01-19T01:49:55.731Z,960.34
2023-01-19T01:59:55.962Z,960.32
2023-01-19T02:09:56.168Z,960.42
2023-01-19T02:19:56.695Z,960.50
2023-01-19T02:29:56.557Z,960.52
2023-01-19T02:39:56.940Z,960.55
2023-01-19T02:49:56.897Z,960.41
2023-01-19T02:59:57.112Z,960.46
2023-01-19T03:09:57.303Z,960.51
2023-01-19T03:19:57.604Z,960.57
2023-01-19T03:29:57.669Z,960.49
2023-01-19T03:39:57.905Z,960.60
2023-01-19T03:49:58.261Z,960.64
2023-01-19T03:59:58.247Z,960.78
2023-01-19T04:09:58.493Z,960.69
2023-01-19T04:19:58.600Z,960.73
2023-01-19T04:29:58.793Z,960.67
2023-01-19T04:39:59.012Z,960.61
2023-01-19T04:49:59.301Z,960.74
2023-01-19T04:59:59.400Z,960.87
2023-01-19T05:09:59.578Z,961.02
2023-01-19T05:19:59.802Z,961.04
2023-01-19T05:30:00.011Z,961.08
2023-01-19T05:40:00.278Z,961.08
2023-01-19T05:50:00.225Z,961.18
2023-01-19T06:00:00.463Z,961.19
2023-01-19T06:10:00.639Z,961.28
2023-01-19T06:20:00.893Z,961.24
2023-01-19T06:30:00.971Z,961.23
2023-01-19T06:40:01.169Z,961.42
2023-01-19T06:50:01.248Z,961.54
2023-01-19T07:00:01.492Z,961.65
2023-01-19T07:10:01.677Z,961.72
2023-01-19T07:20:01.963Z,961.81
2023-01-19T07:30:02.064Z,961.88
2023-01-19T07:40:02.178Z,961.93
2023-01-19T07:50:03.072Z,961.83
2023-01-19T08:00:02.794Z,961.84
2023-01-19T08:10:02.648Z,962.01
2023-01-19T08:20:03.016Z,962.09
2023-01-19T08:30:03.096Z,962.10
2023-01-19T08:40:03.266Z,962.11
2023-01-19T08:50:03.339Z,962.12
2023-01-19T09:00:03.597Z,962.15
2023-01-19T09:10:03.767Z,962.23
2023-01-19T09:20:03.873Z,962.18
2023-01-19T09:30:03.979Z,962.29
2023-01-19T09:40:04.412Z,962.41
2023-01-19T09:50:04.319Z,962.32
2023-01-19T10:00:04.633Z,962.18
2023-01-19T10:10:04.820Z,962.08
2023-01-19T10:20:04.835Z,961.96
2023-01-19T10:30:05.226Z,962.06
2023-01-19T10:40:05.414Z,962.12
2023-01-19T10:50:05.649Z,962.08
2023-01-19T11:00:05.967Z,962.12
2023-01-19T11:10:05.909Z,962.12
2023-01-19T11:20:05.903Z,962.07
2023-01-19T11:30:06.113Z,961.97
2023-01-19T11:40:06.417Z,961.93
2023-01-19T11:50:06.380Z,961.84
2023-01-19T12:00:06.624Z,961.90
2023-01-19T12:10:06.925Z,961.96
2023-01-19T12:20:07.061Z,961.92
2023-01-19T12:30:07.283Z,961.91
2023-01-19T12:40:07.424Z,961.91
2023-01-19T12:50:07.639Z,961.89
2023-01-19T13:00:07.775Z,961.89
2023-01-19T13:10:07.973Z,961.81
2023-01-19T13:20:08.217Z,961.82
2023-01-19T13:30:08.435Z,961.77
2023-01-19T13:40:08.842Z,961.83
2023-01-19T13:50:08.706Z,961.89
2023-01-19T14:00:09.059Z,961.97
2023-01-19T14:10:09.430Z,962.00
2023-01-19T14:20:09.637Z,962.05
2023-01-19T14:30:09.588Z,962.00
2023-01-19T14:40:09.813Z,962.03
2023-01-19T14:50:09.770Z,962.06
2023-01-19T15:00:10.294Z,962.04
2023-01-19T15:10:10.150Z,962.11
2023-01-19T15:20:10.329Z,962.04
2023-01-19T15:30:10.415Z,962.06
2023-01-19T15:40:10.547Z,962.03
2023-01-19T15:50:10.897Z,962.14
2023-01-19T16:00:10.899Z,962.14
2023-01-19T16:10:11.537Z,962.14
2023-01-19T16:20:14.414Z,962.22
2023-01-19T16:30:11.917Z,962.21
2023-01-19T16:40:12.086Z,962.23
2023-01-19T16:50:12.378Z,962.20
2023-01-19T17:00:12.316Z,962.29
2023-01-19T17:10:12.649Z,962.25
2023-01-19T17:20:12.294Z,962.21
2023-01-19T17:30:12.486Z,962.26
2023-01-19T17:40:12.932Z,962.27
2023-01-19T17:50:13.052Z,962.29
2023-01-19T18:00:13.348Z,962.43
2023-01-19T18:10:13.438Z,962.43
2023-01-19T18:20:13.714Z,962.46
2023-01-19T18:30:13.558Z,962.44
2023-01-19T18:40:13.775Z,962.43
2023-01-19T18:50:13.825Z,962.54
2023-01-19T19:00:14.460Z,962.48
2023-01-19T19:10:14.455Z,962.40
2023-01-19T19:20:14.628Z,962.44
2023-01-19T19:30:15.451Z,962.42
2023-01-19T19:40:14.896Z,962.45
2023-01-19T19:50:15.190Z,962.44
2023-01-19T20:00:15.347Z,962.51
2023-01-19T20:10:15.276Z,962.49
2023-01-19T20:20:15.367Z,962.42
2023-01-19T20:30:15.609Z,962.45
2023-01-19T20:40:15.611Z,962.66
2023-01-19T20:50:15.797Z,962.66
2023-01-19T21:00:16.155Z,962.79
2023-01-19T21:10:16.416Z,962.86
2023-01-19T21:20:16.402Z,962.86
2023-01-19T21:30:16.641Z,962.95
2023-01-19T21:40:16.954Z,963.01
2023-01-19T21:50:16.917Z,963.00
2023-01-19T22:00:17.039Z,963.05
2023-01-19T22:10:17.154Z,963.04
2023-01-19T22:20:17.426Z,963.11
2023-01-19T22:30:17.666Z,963.19
2023-01-19T22:40:17.661Z,963.29
2023-01-19T22:50:17.845Z,963.37
2023-01-19T23:00:18.068Z,963.44
2023-01-19T23:10:18.253Z,963.37
2023-01-19T23:20:18.494Z,963.51
2023-01-19T23:30:18.735Z,963.52
2023-01-19T23:40:18.851Z,963.61
2023-01-19T23:50:19.360Z,963.71
